sensor_id;sensor_type;location;lat;lon;timestamp;P1;durP1;ratioP1;P2;durP2;ratioP2
62931;SDS011;49037;41.898;25.004;2022-12-24T00:01:07;3.83;;;2.47;;
62931;SDS011;49037;41.898;25.004;2022-12-24T00:03:33;3.95;;;3.00;;
62931;SDS011;49037;41.898;25.004;2022-12-24T00:06:04;3.25;;;2.60;;
62931;SDS011;49037;41.898;25.004;2022-12-24T00:11:01;3.88;;;2.30;;
62931;SDS011;49037;41.898;25.004;2022-12-24T00:13:26;4.80;;;2.30;;
62931;SDS011;49037;41.898;25.004;2022-12-24T00:15:52;3.28;;;2.42;;
62931;SDS011;49037;41.898;25.004;2022-12-24T00:18:17;3.25;;;2.40;;
62931;SDS011;49037;41.898;25.004;2022-12-24T00:20:46;3.50;;;2.35;;
62931;SDS011;49037;41.898;25.004;2022-12-24T00:23:13;3.55;;;2.40;;
62931;SDS011;49037;41.898;25.004;2022-12-24T00:25:39;4.40;;;2.70;;
62931;SDS011;49037;41.898;25.004;2022-12-24T00:28:04;3.35;;;2.38;;
62931;SDS011;49037;41.898;25.004;2022-12-24T00:30:29;3.13;;;2.25;;
62931;SDS011;49037;41.898;25.004;2022-12-24T00:32:55;2.88;;;2.30;;
62931;SDS011;49037;41.898;25.004;2022-12-24T00:35:33;2.67;;;2.47;;
62931;SDS011;49037;41.898;25.004;2022-12-24T00:37:59;4.07;;;2.20;;
62931;SDS011;49037;41.898;25.004;2022-12-24T00:40:25;5.15;;;2.47;;
62931;SDS011;49037;41.898;25.004;2022-12-24T00:42:50;2.40;;;2.10;;
62931;SDS011;49037;41.898;25.004;2022-12-24T00:45:16;3.97;;;2.15;;
62931;SDS011;49037;41.898;25.004;2022-12-24T00:47:41;3.28;;;2.42;;
62931;SDS011;49037;41.898;25.004;2022-12-24T00:50:07;2.50;;;2.28;;
62931;SDS011;49037;41.898;25.004;2022-12-24T00:52:34;2.78;;;2.40;;
62931;SDS011;49037;41.898;25.004;2022-12-24T00:55:00;2.90;;;2.28;;
62931;SDS011;49037;41.898;25.004;2022-12-24T00:57:25;4.45;;;2.13;;
62931;SDS011;49037;41.898;25.004;2022-12-24T00:59:50;3.47;;;2.35;;
62931;SDS011;49037;41.898;25.004;2022-12-24T01:02:16;2.60;;;2.05;;
62931;SDS011;49037;41.898;25.004;2022-12-24T01:04:41;2.28;;;2.03;;
62931;SDS011;49037;41.898;25.004;2022-12-24T01:10:47;2.30;;;2.10;;
62931;SDS011;49037;41.898;25.004;2022-12-24T01:13:12;3.08;;;1.98;;
62931;SDS011;49037;41.898;25.004;2022-12-24T01:15:38;3.50;;;2.42;;
62931;SDS011;49037;41.898;25.004;2022-12-24T01:18:03;5.10;;;2.10;;
62931;SDS011;49037;41.898;25.004;2022-12-24T01:20:30;2.83;;;2.08;;
62931;SDS011;49037;41.898;25.004;2022-12-24T01:23:12;2.55;;;2.17;;
62931;SDS011;49037;41.898;25.004;2022-12-24T01:25:37;2.80;;;2.03;;
62931;SDS011;49037;41.898;25.004;2022-12-24T01:28:03;2.58;;;1.85;;
62931;SDS011;49037;41.898;25.004;2022-12-24T01:30:29;2.00;;;1.90;;
62931;SDS011;49037;41.898;25.004;2022-12-24T01:32:55;2.28;;;1.77;;
62931;SDS011;49037;41.898;25.004;2022-12-24T01:35:20;4.55;;;1.98;;
62931;SDS011;49037;41.898;25.004;2022-12-24T01:37:46;1.80;;;1.70;;
62931;SDS011;49037;41.898;25.004;2022-12-24T01:40:12;1.67;;;1.58;;
62931;SDS011;49037;41.898;25.004;2022-12-24T01:42:58;3.03;;;2.33;;
62931;SDS011;49037;41.898;25.004;2022-12-24T01:45:52;4.85;;;1.83;;
62931;SDS011;49037;41.898;25.004;2022-12-24T01:48:33;2.35;;;1.73;;
62931;SDS011;49037;41.898;25.004;2022-12-24T01:54:04;2.67;;;1.95;;
62931;SDS011;49037;41.898;25.004;2022-12-24T01:56:39;1.67;;;1.58;;
62931;SDS011;49037;41.898;25.004;2022-12-24T01:59:09;2.17;;;1.40;;
62931;SDS011;49037;41.898;25.004;2022-12-24T02:01:38;1.83;;;1.67;;
62931;SDS011;49037;41.898;25.004;2022-12-24T02:04:11;2.22;;;1.63;;
62931;SDS011;49037;41.898;25.004;2022-12-24T02:06:48;1.42;;;1.33;;
62931;SDS011;49037;41.898;25.004;2022-12-24T02:09:14;2.17;;;1.70;;
62931;SDS011;49037;41.898;25.004;2022-12-24T02:11:39;2.40;;;1.67;;
62931;SDS011;49037;41.898;25.004;2022-12-24T02:14:08;2.70;;;2.15;;
62931;SDS011;49037;41.898;25.004;2022-12-24T02:24:54;3.10;;;1.75;;
62931;SDS011;49037;41.898;25.004;2022-12-24T02:27:33;1.17;;;1.10;;
62931;SDS011;49037;41.898;25.004;2022-12-24T02:30:15;2.25;;;1.60;;
62931;SDS011;49037;41.898;25.004;2022-12-24T02:39:06;1.23;;;1.13;;
62931;SDS011;49037;41.898;25.004;2022-12-24T02:41:37;1.52;;;1.42;;
62931;SDS011;49037;41.898;25.004;2022-12-24T02:44:26;1.55;;;1.23;;
62931;SDS011;49037;41.898;25.004;2022-12-24T02:46:54;1.73;;;1.52;;
62931;SDS011;49037;41.898;25.004;2022-12-24T02:49:21;1.90;;;1.27;;
62931;SDS011;49037;41.898;25.004;2022-12-24T02:51:47;1.17;;;1.08;;
62931;SDS011;49037;41.898;25.004;2022-12-24T02:54:12;2.22;;;1.30;;
62931;SDS011;49037;41.898;25.004;2022-12-24T03:04:52;1.67;;;1.35;;
62931;SDS011;49037;41.898;25.004;2022-12-24T03:10:20;0.98;;;0.98;;
62931;SDS011;49037;41.898;25.004;2022-12-24T03:12:49;1.85;;;1.13;;
62931;SDS011;49037;41.898;25.004;2022-12-24T03:15:20;1.20;;;0.93;;
62931;SDS011;49037;41.898;25.004;2022-12-24T03:17:48;1.52;;;1.10;;
62931;SDS011;49037;41.898;25.004;2022-12-24T03:20:18;1.13;;;1.13;;
62931;SDS011;49037;41.898;25.004;2022-12-24T03:22:47;0.90;;;0.90;;
62931;SDS011;49037;41.898;25.004;2022-12-24T03:25:14;1.20;;;1.08;;
62931;SDS011;49037;41.898;25.004;2022-12-24T03:27:39;1.30;;;1.20;;
62931;SDS011;49037;41.898;25.004;2022-12-24T03:30:09;1.33;;;1.23;;
62931;SDS011;49037;41.898;25.004;2022-12-24T03:32:38;1.15;;;1.08;;
62931;SDS011;49037;41.898;25.004;2022-12-24T03:35:04;1.10;;;0.93;;
62931;SDS011;49037;41.898;25.004;2022-12-24T03:37:31;1.38;;;0.98;;
62931;SDS011;49037;41.898;25.004;2022-12-24T03:39:56;1.35;;;1.25;;
62931;SDS011;49037;41.898;25.004;2022-12-24T03:42:22;1.85;;;1.20;;
62931;SDS011;49037;41.898;25.004;2022-12-24T03:44:48;1.00;;;0.90;;
62931;SDS011;49037;41.898;25.004;2022-12-24T03:47:13;1.60;;;1.10;;
62931;SDS011;49037;41.898;25.004;2022-12-24T03:49:39;1.45;;;0.93;;
62931;SDS011;49037;41.898;25.004;2022-12-24T03:52:04;1.45;;;1.00;;
62931;SDS011;49037;41.898;25.004;2022-12-24T03:54:30;1.83;;;1.00;;
62931;SDS011;49037;41.898;25.004;2022-12-24T03:56:55;1.58;;;1.00;;
62931;SDS011;49037;41.898;25.004;2022-12-24T03:59:21;0.93;;;0.93;;
62931;SDS011;49037;41.898;25.004;2022-12-24T04:01:46;1.02;;;0.90;;
62931;SDS011;49037;41.898;25.004;2022-12-24T04:04:11;2.25;;;0.90;;
62931;SDS011;49037;41.898;25.004;2022-12-24T04:06:37;1.38;;;0.88;;
62931;SDS011;49037;41.898;25.004;2022-12-24T04:09:02;0.90;;;0.90;;
62931;SDS011;49037;41.898;25.004;2022-12-24T04:11:29;0.80;;;0.80;;
62931;SDS011;49037;41.898;25.004;2022-12-24T04:13:59;1.20;;;0.98;;
62931;SDS011;49037;41.898;25.004;2022-12-24T04:16:24;1.00;;;0.80;;
62931;SDS011;49037;41.898;25.004;2022-12-24T04:18:50;1.48;;;0.70;;
62931;SDS011;49037;41.898;25.004;2022-12-24T04:21:15;0.93;;;0.90;;
62931;SDS011;49037;41.898;25.004;2022-12-24T04:23:41;1.10;;;0.90;;
62931;SDS011;49037;41.898;25.004;2022-12-24T04:26:08;0.85;;;0.85;;
62931;SDS011;49037;41.898;25.004;2022-12-24T04:28:35;1.35;;;0.95;;
62931;SDS011;49037;41.898;25.004;2022-12-24T04:31:03;1.25;;;0.80;;
62931;SDS011;49037;41.898;25.004;2022-12-24T04:33:31;1.15;;;0.80;;
62931;SDS011;49037;41.898;25.004;2022-12-24T04:35:57;0.68;;;0.68;;
62931;SDS011;49037;41.898;25.004;2022-12-24T04:38:23;0.47;;;0.47;;
62931;SDS011;49037;41.898;25.004;2022-12-24T04:40:56;2.15;;;0.80;;
62931;SDS011;49037;41.898;25.004;2022-12-24T04:43:25;0.57;;;0.57;;
62931;SDS011;49037;41.898;25.004;2022-12-24T04:45:51;0.85;;;0.85;;
62931;SDS011;49037;41.898;25.004;2022-12-24T04:48:17;0.80;;;0.80;;
62931;SDS011;49037;41.898;25.004;2022-12-24T04:50:43;0.68;;;0.68;;
62931;SDS011;49037;41.898;25.004;2022-12-24T04:53:09;3.35;;;0.88;;
62931;SDS011;49037;41.898;25.004;2022-12-24T04:55:34;0.60;;;0.60;;
62931;SDS011;49037;41.898;25.004;2022-12-24T04:58:00;2.35;;;0.88;;
62931;SDS011;49037;41.898;25.004;2022-12-24T05:00:25;0.50;;;0.50;;
62931;SDS011;49037;41.898;25.004;2022-12-24T05:02:50;0.75;;;0.68;;
62931;SDS011;49037;41.898;25.004;2022-12-24T05:05:16;0.85;;;0.80;;
62931;SDS011;49037;41.898;25.004;2022-12-24T05:07:42;0.55;;;0.55;;
62931;SDS011;49037;41.898;25.004;2022-12-24T05:10:07;0.50;;;0.50;;
62931;SDS011;49037;41.898;25.004;2022-12-24T05:12:35;2.22;;;0.82;;
62931;SDS011;49037;41.898;25.004;2022-12-24T05:15:07;0.65;;;0.65;;
62931;SDS011;49037;41.898;25.004;2022-12-24T05:17:32;0.70;;;0.70;;
62931;SDS011;49037;41.898;25.004;2022-12-24T05:19:58;0.63;;;0.47;;
62931;SDS011;49037;41.898;25.004;2022-12-24T05:22:23;0.40;;;0.40;;
62931;SDS011;49037;41.898;25.004;2022-12-24T05:25:08;0.52;;;0.35;;
62931;SDS011;49037;41.898;25.004;2022-12-24T05:27:52;1.08;;;0.57;;
62931;SDS011;49037;41.898;25.004;2022-12-24T05:30:18;0.63;;;0.50;;
62931;SDS011;49037;41.898;25.004;2022-12-24T05:32:44;0.82;;;0.55;;
62931;SDS011;49037;41.898;25.004;2022-12-24T05:35:09;0.73;;;0.60;;
62931;SDS011;49037;41.898;25.004;2022-12-24T05:37:35;1.00;;;0.47;;
62931;SDS011;49037;41.898;25.004;2022-12-24T05:40:00;0.35;;;0.35;;
62931;SDS011;49037;41.898;25.004;2022-12-24T05:42:26;0.80;;;0.80;;
62931;SDS011;49037;41.898;25.004;2022-12-24T05:44:51;0.45;;;0.45;;
62931;SDS011;49037;41.898;25.004;2022-12-24T05:47:16;0.57;;;0.50;;
62931;SDS011;49037;41.898;25.004;2022-12-24T05:49:42;1.17;;;0.50;;
62931;SDS011;49037;41.898;25.004;2022-12-24T05:52:07;0.45;;;0.45;;
62931;SDS011;49037;41.898;25.004;2022-12-24T05:54:33;0.82;;;0.65;;
62931;SDS011;49037;41.898;25.004;2022-12-24T05:56:58;0.60;;;0.60;;
62931;SDS011;49037;41.898;25.004;2022-12-24T05:59:23;0.50;;;0.50;;
62931;SDS011;49037;41.898;25.004;2022-12-24T06:01:49;0.55;;;0.50;;
62931;SDS011;49037;41.898;25.004;2022-12-24T06:04:15;0.45;;;0.45;;
62931;SDS011;49037;41.898;25.004;2022-12-24T06:06:40;0.28;;;0.28;;
62931;SDS011;49037;41.898;25.004;2022-12-24T06:09:11;0.40;;;0.40;;
62931;SDS011;49037;41.898;25.004;2022-12-24T06:11:36;0.38;;;0.38;;
62931;SDS011;49037;41.898;25.004;2022-12-24T06:14:02;0.40;;;0.40;;
62931;SDS011;49037;41.898;25.004;2022-12-24T06:16:27;0.38;;;0.28;;
62931;SDS011;49037;41.898;25.004;2022-12-24T06:18:53;0.40;;;0.28;;
62931;SDS011;49037;41.898;25.004;2022-12-24T06:24:42;0.50;;;0.50;;
62931;SDS011;49037;41.898;25.004;2022-12-24T06:27:07;0.65;;;0.63;;
62931;SDS011;49037;41.898;25.004;2022-12-24T06:29:32;0.40;;;0.40;;
62931;SDS011;49037;41.898;25.004;2022-12-24T06:31:58;0.38;;;0.28;;
62931;SDS011;49037;41.898;25.004;2022-12-24T06:34:23;0.50;;;0.50;;
62931;SDS011;49037;41.898;25.004;2022-12-24T06:43:38;1.50;;;0.40;;
62931;SDS011;49037;41.898;25.004;2022-12-24T06:46:04;1.75;;;0.57;;
62931;SDS011;49037;41.898;25.004;2022-12-24T06:48:29;0.30;;;0.30;;
62931;SDS011;49037;41.898;25.004;2022-12-24T06:50:55;1.25;;;0.35;;
62931;SDS011;49037;41.898;25.004;2022-12-24T06:53:20;0.30;;;0.30;;
62931;SDS011;49037;41.898;25.004;2022-12-24T06:55:47;0.38;;;0.38;;
62931;SDS011;49037;41.898;25.004;2022-12-24T06:58:12;0.30;;;0.30;;
62931;SDS011;49037;41.898;25.004;2022-12-24T07:00:46;0.73;;;0.57;;
62931;SDS011;49037;41.898;25.004;2022-12-24T07:03:11;0.68;;;0.68;;
62931;SDS011;49037;41.898;25.004;2022-12-24T07:05:37;0.60;;;0.60;;
62931;SDS011;49037;41.898;25.004;2022-12-24T07:08:02;0.40;;;0.40;;
62931;SDS011;49037;41.898;25.004;2022-12-24T07:10:28;2.33;;;0.60;;
62931;SDS011;49037;41.898;25.004;2022-12-24T07:12:58;0.30;;;0.30;;
62931;SDS011;49037;41.898;25.004;2022-12-24T07:15:24;2.92;;;1.23;;
62931;SDS011;49037;41.898;25.004;2022-12-24T07:17:49;0.35;;;0.32;;
62931;SDS011;49037;41.898;25.004;2022-12-24T07:20:15;1.40;;;0.50;;
62931;SDS011;49037;41.898;25.004;2022-12-24T07:22:41;0.40;;;0.40;;
62931;SDS011;49037;41.898;25.004;2022-12-24T07:25:07;0.35;;;0.35;;
62931;SDS011;49037;41.898;25.004;2022-12-24T07:27:47;0.57;;;0.50;;
62931;SDS011;49037;41.898;25.004;2022-12-24T07:30:12;0.30;;;0.30;;
62931;SDS011;49037;41.898;25.004;2022-12-24T07:32:38;0.40;;;0.40;;
62931;SDS011;49037;41.898;25.004;2022-12-24T07:35:03;0.20;;;0.20;;
62931;SDS011;49037;41.898;25.004;2022-12-24T07:37:29;0.55;;;0.30;;
62931;SDS011;49037;41.898;25.004;2022-12-24T07:39:55;0.57;;;0.57;;
62931;SDS011;49037;41.898;25.004;2022-12-24T07:42:20;0.30;;;0.30;;
62931;SDS011;49037;41.898;25.004;2022-12-24T07:44:46;0.50;;;0.50;;
62931;SDS011;49037;41.898;25.004;2022-12-24T07:47:11;0.60;;;0.40;;
62931;SDS011;49037;41.898;25.004;2022-12-24T07:49:37;0.47;;;0.47;;
62931;SDS011;49037;41.898;25.004;2022-12-24T07:52:03;0.63;;;0.60;;
62931;SDS011;49037;41.898;25.004;2022-12-24T07:54:29;6.28;;;3.25;;
62931;SDS011;49037;41.898;25.004;2022-12-24T07:56:54;14.25;;;6.13;;
62931;SDS011;49037;41.898;25.004;2022-12-24T07:59:20;6.85;;;3.55;;
62931;SDS011;49037;41.898;25.004;2022-12-24T08:01:45;1.15;;;1.00;;
62931;SDS011;49037;41.898;25.004;2022-12-24T08:04:11;12.27;;;7.40;;
62931;SDS011;49037;41.898;25.004;2022-12-24T08:06:37;4.50;;;3.70;;
62931;SDS011;49037;41.898;25.004;2022-12-24T08:09:02;2.67;;;2.47;;
62931;SDS011;49037;41.898;25.004;2022-12-24T08:11:28;8.00;;;5.50;;
62931;SDS011;49037;41.898;25.004;2022-12-24T08:13:53;9.48;;;5.18;;
62931;SDS011;49037;41.898;25.004;2022-12-24T08:16:19;3.55;;;2.28;;
62931;SDS011;49037;41.898;25.004;2022-12-24T08:22:25;12.30;;;7.03;;
62931;SDS011;49037;41.898;25.004;2022-12-24T08:24:50;13.80;;;8.38;;
62931;SDS011;49037;41.898;25.004;2022-12-24T08:27:15;29.85;;;14.20;;
62931;SDS011;49037;41.898;25.004;2022-12-24T08:29:41;37.97;;;19.35;;
62931;SDS011;49037;41.898;25.004;2022-12-24T08:32:06;35.47;;;20.67;;
62931;SDS011;49037;41.898;25.004;2022-12-24T08:34:32;32.88;;;18.23;;
62931;SDS011;49037;41.898;25.004;2022-12-24T08:36:57;25.58;;;17.42;;
62931;SDS011;49037;41.898;25.004;2022-12-24T08:39:23;19.10;;;10.00;;
62931;SDS011;49037;41.898;25.004;2022-12-24T08:41:49;19.58;;;10.70;;
62931;SDS011;49037;41.898;25.004;2022-12-24T08:44:15;17.00;;;10.82;;
62931;SDS011;49037;41.898;25.004;2022-12-24T08:46:41;19.15;;;11.40;;
62931;SDS011;49037;41.898;25.004;2022-12-24T08:49:06;19.80;;;10.57;;
62931;SDS011;49037;41.898;25.004;2022-12-24T08:51:32;18.83;;;11.30;;
62931;SDS011;49037;41.898;25.004;2022-12-24T08:53:57;18.58;;;11.25;;
62931;SDS011;49037;41.898;25.004;2022-12-24T08:56:23;18.67;;;10.27;;
62931;SDS011;49037;41.898;25.004;2022-12-24T08:58:48;19.70;;;12.20;;
62931;SDS011;49037;41.898;25.004;2022-12-24T09:01:15;19.17;;;10.57;;
62931;SDS011;49037;41.898;25.004;2022-12-24T09:03:41;21.27;;;11.77;;
62931;SDS011;49037;41.898;25.004;2022-12-24T09:06:07;19.73;;;10.70;;
62931;SDS011;49037;41.898;25.004;2022-12-24T09:08:33;26.17;;;13.43;;
62931;SDS011;49037;41.898;25.004;2022-12-24T09:11:11;24.95;;;15.35;;
62931;SDS011;49037;41.898;25.004;2022-12-24T09:13:39;22.00;;;12.93;;
62931;SDS011;49037;41.898;25.004;2022-12-24T09:16:05;21.92;;;12.90;;
62931;SDS011;49037;41.898;25.004;2022-12-24T09:18:33;21.30;;;12.88;;
62931;SDS011;49037;41.898;25.004;2022-12-24T09:21:03;25.38;;;14.65;;
62931;SDS011;49037;41.898;25.004;2022-12-24T09:23:30;59.15;;;33.60;;
62931;SDS011;49037;41.898;25.004;2022-12-24T09:25:58;45.72;;;26.35;;
62931;SDS011;49037;41.898;25.004;2022-12-24T09:28:24;34.85;;;22.23;;
62931;SDS011;49037;41.898;25.004;2022-12-24T09:30:59;32.90;;;19.23;;
62931;SDS011;49037;41.898;25.004;2022-12-24T09:33:30;43.33;;;22.10;;
62931;SDS011;49037;41.898;25.004;2022-12-24T09:35:57;37.42;;;23.63;;
62931;SDS011;49037;41.898;25.004;2022-12-24T09:38:24;28.98;;;20.02;;
62931;SDS011;49037;41.898;25.004;2022-12-24T09:40:50;28.13;;;19.30;;
62931;SDS011;49037;41.898;25.004;2022-12-24T09:43:18;23.23;;;14.88;;
62931;SDS011;49037;41.898;25.004;2022-12-24T09:48:22;26.98;;;17.55;;
62931;SDS011;49037;41.898;25.004;2022-12-24T09:50:52;29.33;;;17.35;;
62931;SDS011;49037;41.898;25.004;2022-12-24T09:55:57;16.80;;;10.60;;
62931;SDS011;49037;41.898;25.004;2022-12-24T09:58:30;14.32;;;8.77;;
62931;SDS011;49037;41.898;25.004;2022-12-24T10:01:01;10.23;;;6.30;;
62931;SDS011;49037;41.898;25.004;2022-12-24T10:03:27;14.32;;;8.10;;
62931;SDS011;49037;41.898;25.004;2022-12-24T10:11:36;12.13;;;7.07;;
62931;SDS011;49037;41.898;25.004;2022-12-24T10:14:06;11.02;;;7.03;;
62931;SDS011;49037;41.898;25.004;2022-12-24T10:19:42;18.85;;;11.18;;
62931;SDS011;49037;41.898;25.004;2022-12-24T10:23:20;19.00;;;11.60;;
62931;SDS011;49037;41.898;25.004;2022-12-24T10:29:46;28.08;;;19.38;;
62931;SDS011;49037;41.898;25.004;2022-12-24T10:32:20;26.33;;;16.15;;
62931;SDS011;49037;41.898;25.004;2022-12-24T10:37:26;20.63;;;12.85;;
62931;SDS011;49037;41.898;25.004;2022-12-24T10:39:53;16.52;;;11.18;;
62931;SDS011;49037;41.898;25.004;2022-12-24T10:42:20;17.77;;;11.40;;
62931;SDS011;49037;41.898;25.004;2022-12-24T10:46:04;14.65;;;8.98;;
62931;SDS011;49037;41.898;25.004;2022-12-24T10:48:41;17.92;;;9.10;;
62931;SDS011;49037;41.898;25.004;2022-12-24T10:53:21;18.35;;;10.73;;
62931;SDS011;49037;41.898;25.004;2022-12-24T10:55:59;20.33;;;13.93;;
62931;SDS011;49037;41.898;25.004;2022-12-24T10:58:27;19.15;;;12.40;;
62931;SDS011;49037;41.898;25.004;2022-12-24T11:05:38;13.80;;;8.02;;
62931;SDS011;49037;41.898;25.004;2022-12-24T11:09:40;11.88;;;6.80;;
62931;SDS011;49037;41.898;25.004;2022-12-24T11:12:18;11.93;;;7.20;;
62931;SDS011;49037;41.898;25.004;2022-12-24T11:14:47;10.23;;;6.32;;
62931;SDS011;49037;41.898;25.004;2022-12-24T11:20:17;12.18;;;7.63;;
62931;SDS011;49037;41.898;25.004;2022-12-24T11:22:47;10.07;;;5.93;;
62931;SDS011;49037;41.898;25.004;2022-12-24T11:25:20;12.70;;;7.25;;
62931;SDS011;49037;41.898;25.004;2022-12-24T11:27:47;12.98;;;7.38;;
62931;SDS011;49037;41.898;25.004;2022-12-24T11:35:28;11.07;;;6.68;;
62931;SDS011;49037;41.898;25.004;2022-12-24T11:40:25;12.85;;;6.55;;
62931;SDS011;49037;41.898;25.004;2022-12-24T11:43:00;10.73;;;6.60;;
62931;SDS011;49037;41.898;25.004;2022-12-24T11:48:49;17.75;;;12.38;;
62931;SDS011;49037;41.898;25.004;2022-12-24T11:51:44;14.02;;;7.30;;
62931;SDS011;49037;41.898;25.004;2022-12-24T11:54:25;11.45;;;7.25;;
62931;SDS011;49037;41.898;25.004;2022-12-24T11:56:54;17.13;;;10.70;;
62931;SDS011;49037;41.898;25.004;2022-12-24T12:05:30;26.80;;;14.13;;
62931;SDS011;49037;41.898;25.004;2022-12-24T12:08:02;29.33;;;15.50;;
62931;SDS011;49037;41.898;25.004;2022-12-24T12:10:35;14.85;;;9.00;;
62931;SDS011;49037;41.898;25.004;2022-12-24T12:13:09;13.98;;;7.90;;
62931;SDS011;49037;41.898;25.004;2022-12-24T12:15:40;15.55;;;10.30;;
62931;SDS011;49037;41.898;25.004;2022-12-24T12:18:14;15.85;;;9.95;;
62931;SDS011;49037;41.898;25.004;2022-12-24T12:20:55;17.52;;;12.05;;
62931;SDS011;49037;41.898;25.004;2022-12-24T12:23:29;20.17;;;10.77;;
62931;SDS011;49037;41.898;25.004;2022-12-24T12:28:45;23.25;;;16.70;;
62931;SDS011;49037;41.898;25.004;2022-12-24T12:33:55;15.38;;;10.10;;
62931;SDS011;49037;41.898;25.004;2022-12-24T12:36:30;11.70;;;6.82;;
62931;SDS011;49037;41.898;25.004;2022-12-24T12:39:23;15.52;;;8.70;;
62931;SDS011;49037;41.898;25.004;2022-12-24T12:47:14;13.50;;;7.85;;
62931;SDS011;49037;41.898;25.004;2022-12-24T12:57:25;13.18;;;7.05;;
62931;SDS011;49037;41.898;25.004;2022-12-24T12:59:58;8.90;;;5.28;;
62931;SDS011;49037;41.898;25.004;2022-12-24T13:22:23;12.15;;;7.40;;
62931;SDS011;49037;41.898;25.004;2022-12-24T13:24:49;31.73;;;25.27;;
62931;SDS011;49037;41.898;25.004;2022-12-24T13:27:18;13.60;;;9.80;;
62931;SDS011;49037;41.898;25.004;2022-12-24T13:34:48;27.27;;;14.23;;
62931;SDS011;49037;41.898;25.004;2022-12-24T13:47:56;65.68;;;41.25;;
62931;SDS011;49037;41.898;25.004;2022-12-24T13:55:54;17.50;;;11.00;;
62931;SDS011;49037;41.898;25.004;2022-12-24T13:58:23;16.60;;;9.77;;
62931;SDS011;49037;41.898;25.004;2022-12-24T14:00:56;12.95;;;7.20;;
62931;SDS011;49037;41.898;25.004;2022-12-24T14:03:28;11.27;;;6.78;;
62931;SDS011;49037;41.898;25.004;2022-12-24T14:06:00;15.32;;;7.60;;
62931;SDS011;49037;41.898;25.004;2022-12-24T14:08:31;13.50;;;7.80;;
62931;SDS011;49037;41.898;25.004;2022-12-24T14:11:09;12.52;;;7.75;;
62931;SDS011;49037;41.898;25.004;2022-12-24T14:22:01;11.10;;;6.40;;
62931;SDS011;49037;41.898;25.004;2022-12-24T14:27:36;20.23;;;12.93;;
62931;SDS011;49037;41.898;25.004;2022-12-24T14:30:06;26.50;;;18.92;;
62931;SDS011;49037;41.898;25.004;2022-12-24T14:32:40;16.30;;;12.38;;
62931;SDS011;49037;41.898;25.004;2022-12-24T14:37:31;21.38;;;10.98;;
62931;SDS011;49037;41.898;25.004;2022-12-24T14:39:57;23.45;;;12.57;;
62931;SDS011;49037;41.898;25.004;2022-12-24T14:42:32;15.90;;;9.55;;
62931;SDS011;49037;41.898;25.004;2022-12-24T14:47:45;11.77;;;7.07;;
62931;SDS011;49037;41.898;25.004;2022-12-24T14:55:43;10.73;;;5.70;;
62931;SDS011;49037;41.898;25.004;2022-12-24T14:58:29;7.93;;;5.05;;
62931;SDS011;49037;41.898;25.004;2022-12-24T15:00:57;9.48;;;5.07;;
62931;SDS011;49037;41.898;25.004;2022-12-24T15:03:26;14.23;;;10.05;;
62931;SDS011;49037;41.898;25.004;2022-12-24T15:05:55;24.70;;;15.73;;
62931;SDS011;49037;41.898;25.004;2022-12-24T15:08:30;30.58;;;19.52;;
62931;SDS011;49037;41.898;25.004;2022-12-24T15:11:02;11.65;;;6.53;;
62931;SDS011;49037;41.898;25.004;2022-12-24T15:13:35;16.08;;;9.82;;
62931;SDS011;49037;41.898;25.004;2022-12-24T15:16:10;15.48;;;8.77;;
62931;SDS011;49037;41.898;25.004;2022-12-24T15:18:41;9.23;;;5.10;;
62931;SDS011;49037;41.898;25.004;2022-12-24T15:21:25;12.25;;;5.15;;
62931;SDS011;49037;41.898;25.004;2022-12-24T15:23:54;8.50;;;5.07;;
62931;SDS011;49037;41.898;25.004;2022-12-24T15:26:27;6.43;;;4.28;;
62931;SDS011;49037;41.898;25.004;2022-12-24T15:28:58;7.13;;;4.30;;
62931;SDS011;49037;41.898;25.004;2022-12-24T15:33:51;8.38;;;4.00;;
62931;SDS011;49037;41.898;25.004;2022-12-24T15:39:03;7.70;;;4.18;;
62931;SDS011;49037;41.898;25.004;2022-12-24T15:41:35;8.35;;;4.45;;
62931;SDS011;49037;41.898;25.004;2022-12-24T15:44:56;7.45;;;4.50;;
62931;SDS011;49037;41.898;25.004;2022-12-24T15:47:29;6.55;;;4.45;;
62931;SDS011;49037;41.898;25.004;2022-12-24T15:50:26;7.82;;;4.13;;
62931;SDS011;49037;41.898;25.004;2022-12-24T15:53:06;12.50;;;5.47;;
62931;SDS011;49037;41.898;25.004;2022-12-24T16:06:13;8.70;;;4.95;;
62931;SDS011;49037;41.898;25.004;2022-12-24T16:08:39;9.95;;;6.22;;
62931;SDS011;49037;41.898;25.004;2022-12-24T16:13:34;7.60;;;5.15;;
62931;SDS011;49037;41.898;25.004;2022-12-24T16:16:29;41.15;;;16.40;;
62931;SDS011;49037;41.898;25.004;2022-12-24T16:19:05;64.57;;;25.30;;
62931;SDS011;49037;41.898;25.004;2022-12-24T16:21:39;67.15;;;28.83;;
62931;SDS011;49037;41.898;25.004;2022-12-24T16:24:23;8.73;;;5.65;;
62931;SDS011;49037;41.898;25.004;2022-12-24T16:26:51;38.90;;;23.20;;
62931;SDS011;49037;41.898;25.004;2022-12-24T16:29:17;19.45;;;11.57;;
62931;SDS011;49037;41.898;25.004;2022-12-24T16:31:49;15.27;;;9.95;;
62931;SDS011;49037;41.898;25.004;2022-12-24T16:34:19;8.20;;;4.00;;
62931;SDS011;49037;41.898;25.004;2022-12-24T16:36:48;7.43;;;4.72;;
62931;SDS011;49037;41.898;25.004;2022-12-24T16:39:15;8.63;;;3.92;;
62931;SDS011;49037;41.898;25.004;2022-12-24T16:44:33;6.57;;;4.20;;
62931;SDS011;49037;41.898;25.004;2022-12-24T16:46:59;6.82;;;3.67;;
62931;SDS011;49037;41.898;25.004;2022-12-24T16:49:24;4.50;;;2.92;;
62931;SDS011;49037;41.898;25.004;2022-12-24T16:51:50;4.47;;;3.10;;
62931;SDS011;49037;41.898;25.004;2022-12-24T16:54:16;6.03;;;2.90;;
62931;SDS011;49037;41.898;25.004;2022-12-24T16:56:42;14.60;;;7.00;;
62931;SDS011;49037;41.898;25.004;2022-12-24T16:59:29;15.48;;;7.13;;
62931;SDS011;49037;41.898;25.004;2022-12-24T17:01:54;4.75;;;3.35;;
62931;SDS011;49037;41.898;25.004;2022-12-24T17:04:21;4.60;;;3.13;;
62931;SDS011;49037;41.898;25.004;2022-12-24T17:06:47;4.97;;;3.30;;
62931;SDS011;49037;41.898;25.004;2022-12-24T17:09:14;4.15;;;2.80;;
62931;SDS011;49037;41.898;25.004;2022-12-24T17:11:39;4.55;;;3.20;;
62931;SDS011;49037;41.898;25.004;2022-12-24T17:14:05;4.47;;;3.25;;
62931;SDS011;49037;41.898;25.004;2022-12-24T17:16:33;6.10;;;3.90;;
62931;SDS011;49037;41.898;25.004;2022-12-24T17:19:01;7.03;;;4.25;;
62931;SDS011;49037;41.898;25.004;2022-12-24T17:21:27;14.77;;;9.43;;
62931;SDS011;49037;41.898;25.004;2022-12-24T17:23:52;13.55;;;8.23;;
62931;SDS011;49037;41.898;25.004;2022-12-24T17:26:18;5.68;;;4.00;;
62931;SDS011;49037;41.898;25.004;2022-12-24T17:28:43;9.82;;;6.10;;
62931;SDS011;49037;41.898;25.004;2022-12-24T17:31:09;7.20;;;4.57;;
62931;SDS011;49037;41.898;25.004;2022-12-24T17:33:36;5.38;;;2.85;;
62931;SDS011;49037;41.898;25.004;2022-12-24T17:36:02;5.90;;;3.22;;
62931;SDS011;49037;41.898;25.004;2022-12-24T17:38:28;4.95;;;3.10;;
62931;SDS011;49037;41.898;25.004;2022-12-24T17:41:00;8.48;;;4.93;;
62931;SDS011;49037;41.898;25.004;2022-12-24T17:43:26;5.60;;;3.45;;
62931;SDS011;49037;41.898;25.004;2022-12-24T17:45:51;5.30;;;2.72;;
62931;SDS011;49037;41.898;25.004;2022-12-24T17:48:17;5.38;;;3.97;;
62931;SDS011;49037;41.898;25.004;2022-12-24T17:50:42;5.65;;;4.05;;
62931;SDS011;49037;41.898;25.004;2022-12-24T17:53:07;5.30;;;3.40;;
62931;SDS011;49037;41.898;25.004;2022-12-24T17:55:33;5.35;;;3.05;;
62931;SDS011;49037;41.898;25.004;2022-12-24T17:58:02;5.70;;;3.00;;
62931;SDS011;49037;41.898;25.004;2022-12-24T18:00:28;3.70;;;2.90;;